Time;durP1;ratioP1;P1;durP2;ratioP2;P2;SDS_P1;SDS_P2;PMS_P1;PMS_P2;Temp;Humidity;BMP_temperature;BMP_pressure;BME280_temperature;BME280_humidity;BME280_pressure;Samples;Min_cycle;Max_cycle;Signal;HPM_P1;HPM_P2
2022/06/14 00:02:04;;;;;;;10.35;5.80;;;;;;;23.33;59.00;100749.25;5016352;28;20398;-81
2022/06/14 00:04:48;;;;;;;8.88;5.45;;;;;;;23.36;59.45;100754.00;5021771;28;20050;-80
2022/06/14 00:07:33;;;;;;;11.77;5.38;;;;;;;23.30;59.30;100745.31;5021652;28;20705;-81
2022/06/14 00:10:18;;;;;;;14.27;5.80;;;;;;;23.12;60.24;100752.06;5015621;28;20407;-81
2022/06/14 00:13:04;;;;;;;8.95;5.40;;;;;;;23.25;59.21;100750.47;5018159;28;20052;-81
2022/06/14 00:15:49;;;;;;;9.88;5.57;;;;;;;23.37;58.55;100758.34;5015163;28;20110;-80
2022/06/14 00:18:34;;;;;;;15.00;5.65;;;;;;;23.65;57.92;100757.50;5021693;28;20402;-80
2022/06/14 00:21:19;;;;;;;17.38;5.43;;;;;;;23.55;58.25;100750.00;5036455;28;20042;-80
2022/06/14 00:24:06;;;;;;;10.10;4.50;;;;;;;23.50;58.11;100753.19;5014713;28;20038;-81
2022/06/14 00:26:50;;;;;;;6.72;4.75;;;;;;;23.49;57.27;100757.97;5014674;28;20053;-79
2022/06/14 00:29:35;;;;;;;11.38;3.38;;;;;;;23.52;57.64;100765.47;5019807;28;20052;-80
2022/06/14 00:32:19;;;;;;;9.60;4.35;;;;;;;23.23;58.54;100764.72;5019240;28;20488;-80
2022/06/14 00:35:04;;;;;;;7.50;4.13;;;;;;;23.05;58.54;100765.97;5019954;28;20518;-82
2022/06/14 00:37:49;;;;;;;6.28;4.47;;;;;;;22.73;59.62;100764.00;5019914;28;20052;-79
2022/06/14 00:40:36;;;;;;;13.50;5.85;;;;;;;22.63;60.06;100766.75;5018175;28;20044;-79
2022/06/14 00:43:22;;;;;;;10.93;4.47;;;;;;;22.68;59.86;100764.38;5015986;28;20049;-80
2022/06/14 00:46:11;;;;;;;7.47;4.88;;;;;;;22.93;59.30;100751.31;5013995;28;20038;-81
2022/06/14 00:49:05;;;;;;;6.30;4.15;;;;;;;23.01;58.87;100752.88;5014062;28;20053;-80
2022/06/14 00:51:57;;;;;;;6.68;3.75;;;;;;;23.12;58.64;100763.16;5019569;28;20518;-80
2022/06/14 00:54:48;;;;;;;9.98;3.80;;;;;;;23.21;58.31;100766.34;5019261;28;20049;-82
2022/06/14 00:57:48;;;;;;;5.90;4.50;;;;;;;22.94;58.17;100772.31;5019030;28;20040;-80
2022/06/14 01:00:39;;;;;;;8.57;4.68;;;;;;;22.64;59.33;100774.69;5013347;28;20056;-80
2022/06/14 01:03:28;;;;;;;8.98;4.47;;;;;;;22.46;59.79;100765.53;5015094;28;20057;-79
2022/06/14 01:06:25;;;;;;;9.23;4.03;;;;;;;22.45;59.94;100766.75;5018812;28;20057;-80
2022/06/14 01:09:21;;;;;;;11.25;4.38;;;;;;;22.64;59.64;100765.56;5013115;28;20061;-79
2022/06/14 01:12:19;;;;;;;14.15;4.32;;;;;;;22.80;59.18;100766.78;5012819;28;20046;-79
2022/06/14 01:15:19;;;;;;;10.60;4.13;;;;;;;22.68;59.38;100769.91;4999188;28;20046;-80
2022/06/14 01:18:13;;;;;;;4.68;3.95;;;;;;;22.70;59.64;100775.88;5009172;28;20042;-80
2022/06/14 01:20:58;;;;;;;8.15;4.10;;;;;;;22.54;60.36;100772.69;5012885;28;20065;-80
2022/06/14 01:23:43;;;;;;;4.72;3.92;;;;;;;22.74;59.64;100779.47;5021949;28;20511;-80
2022/06/14 01:26:30;;;;;;;5.40;3.67;;;;;;;22.67;59.78;100773.88;5036372;28;20052;-80
2022/06/14 01:29:16;;;;;;;4.10;3.63;;;;;;;22.80;58.74;100779.84;5019901;28;20053;-80
2022/06/14 01:32:18;;;;;;;7.80;4.00;;;;;;;22.68;59.02;100781.00;5012988;28;20057;-80
2022/06/14 01:35:08;;;;;;;10.07;4.15;;;;;;;22.33;60.22;100786.50;5012851;28;20418;-80
2022/06/14 01:37:56;;;;;;;5.80;3.70;;;;;;;22.22;60.10;100780.94;5008977;28;20038;-80
2022/06/14 01:41:05;;;;;;;8.63;3.25;;;;;;;22.02;61.03;100779.72;4993403;28;20057;-79
2022/06/14 01:44:01;;;;;;;5.57;4.25;;;;;;;22.39;59.79;100782.19;4993735;28;20046;-79
2022/06/14 01:47:22;;;;;;;6.10;4.03;;;;;;;22.26;59.98;100783.72;4998576;28;20049;-80
2022/06/14 01:53:40;;;;;;;6.43;3.75;;;;;;;21.87;60.93;100791.88;4993457;28;20056;-79
2022/06/14 01:56:38;;;;;;;7.28;4.05;;;;;;;21.80;61.89;100789.09;4994862;28;20049;-82
2022/06/14 01:59:36;;;;;;;12.57;4.57;;;;;;;22.01;60.85;100792.75;4994089;28;20045;-81
2022/06/14 02:02:28;;;;;;;7.45;3.72;;;;;;;22.10;60.40;100787.63;5016233;28;20666;-81
2022/06/14 02:05:32;;;;;;;7.10;3.67;;;;;;;22.20;60.41;100797.16;5014713;28;20053;-81
2022/06/14 02:08:23;;;;;;;5.30;3.67;;;;;;;22.31;59.85;100789.66;5017276;28;20045;-80
2022/06/14 02:11:13;;;;;;;6.65;3.80;;;;;;;22.45;59.37;100794.47;5014784;28;20717;-81
2022/06/14 02:14:01;;;;;;;6.72;3.97;;;;;;;22.54;59.05;100794.88;5013594;28;20073;-81
2022/06/14 02:16:59;;;;;;;5.60;3.60;;;;;;;22.46;59.19;100796.81;5013242;28;20652;-81
2022/06/14 02:19:54;;;;;;;7.32;4.47;;;;;;;22.60;58.53;100790.53;5018748;28;20045;-81
2022/06/14 02:22:45;;;;;;;10.82;4.05;;;;;;;22.61;58.94;100792.88;5013172;28;20057;-81
2022/06/14 02:25:53;;;;;;;10.23;4.80;;;;;;;22.59;58.82;100800.81;5012916;28;20045;-81
2022/06/14 02:28:44;;;;;;;6.88;3.92;;;;;;;22.50;58.87;100786.53;5013350;28;20526;-82
2022/06/14 02:31:39;;;;;;;14.30;5.03;;;;;;;22.33;60.01;100795.63;5018187;28;20419;-80
2022/06/14 02:34:29;;;;;;;6.78;4.43;;;;;;;22.41;59.59;100797.22;5011553;28;20054;-81
2022/06/14 02:37:17;;;;;;;5.25;3.17;;;;;;;22.46;60.10;100802.38;5012372;28;20053;-82
2022/06/14 02:40:08;;;;;;;7.65;4.70;;;;;;;22.15;60.34;100808.63;5015197;28;20049;-82
2022/06/14 02:43:04;;;;;;;10.48;5.50;;;;;;;22.22;60.81;100807.84;5012765;28;20100;-81
2022/06/14 02:46:13;;;;;;;12.43;4.80;;;;;;;22.00;60.97;100812.53;5016058;28;20052;-81
2022/06/14 02:49:09;;;;;;;7.97;5.18;;;;;;;22.00;61.42;100809.75;5012502;28;20042;-80
2022/06/14 02:52:15;;;;;;;11.75;4.95;;;;;;;22.26;60.59;100815.00;5012641;28;20053;-80
2022/06/14 02:55:03;;;;;;;9.95;5.40;;;;;;;22.36;60.90;100810.66;5015218;28;20038;-80
2022/06/14 02:57:56;;;;;;;7.82;4.88;;;;;;;22.37;60.23;100810.28;5015221;28;20053;-79
2022/06/14 03:00:45;;;;;;;10.43;4.95;;;;;;;22.15;61.02;100826.03;5016354;28;20045;-79
2022/06/14 03:03:38;;;;;;;12.23;5.18;;;;;;;22.21;60.95;100818.16;5017495;28;20068;-79
2022/06/14 03:06:35;;;;;;;10.88;4.40;;;;;;;22.24;60.92;100827.66;5017435;28;20411;-80
2022/06/14 03:09:23;;;;;;;9.80;5.65;;;;;;;22.25;60.33;100826.50;5015731;28;20511;-79
2022/06/14 03:12:44;;;;;;;10.80;5.03;;;;;;;22.09;61.18;100830.41;5021070;28;20068;-81
2022/06/14 03:15:40;;;;;;;12.60;4.93;;;;;;;21.97;61.03;100825.19;5015843;28;20049;-79
2022/06/14 03:18:28;;;;;;;8.63;4.55;;;;;;;21.93;60.99;100826.34;5016229;28;20403;-79
2022/06/14 03:21:21;;;;;;;8.18;4.93;;;;;;;21.91;60.91;100829.47;5018989;28;20049;-79
2022/06/14 03:24:19;;;;;;;16.15;6.57;;;;;;;21.83;61.32;100824.31;5018970;28;20045;-79
2022/06/14 03:27:34;;;;;;;8.70;5.78;;;;;;;21.77;62.14;100821.91;5026783;28;20038;-80
2022/06/14 03:30:26;;;;;;;11.40;6.38;;;;;;;21.83;61.47;100835.38;5023907;28;20049;-79
2022/06/14 03:33:21;;;;;;;11.27;6.55;;;;;;;21.92;61.16;100833.84;5015521;28;20057;-79
2022/06/14 03:36:10;;;;;;;12.35;5.95;;;;;;;21.95;60.95;100833.09;5020642;28;20038;-79
2022/06/14 03:39:17;;;;;;;8.98;5.20;;;;;;;21.99;61.28;100835.91;5020989;28;20517;-81
2022/06/14 03:42:07;;;;;;;10.65;5.93;;;;;;;22.32;60.44;100840.34;5018756;28;20045;-79
2022/06/14 03:44:51;;;;;;;6.13;4.90;;;;;;;22.40;60.03;100839.97;5029346;23;20042;-78
2022/06/14 03:47:36;;;;;;;9.18;5.38;;;;;;;22.33;60.66;100848.28;5014385;28;20049;-78
2022/06/14 03:50:29;;;;;;;7.20;5.45;;;;;;;22.17;60.26;100851.38;5018843;28;20056;-78
2022/06/14 03:53:39;;;;;;;9.82;5.25;;;;;;;22.36;59.50;100857.75;5019096;28;20530;-79
2022/06/14 03:56:47;;;;;;;11.85;5.65;;;;;;;22.25;59.32;100856.97;5044057;28;20053;-78
2022/06/14 03:59:48;;;;;;;8.25;4.93;;;;;;;22.34;60.41;100866.50;5030680;28;20038;-79
2022/06/14 04:02:54;;;;;;;7.80;4.80;;;;;;;22.51;59.99;100867.69;5025912;28;20521;-79
2022/06/14 04:05:53;;;;;;;9.13;5.80;;;;;;;22.68;58.97;100869.72;5030968;28;20048;-78
2022/06/14 04:09:07;;;;;;;6.15;5.15;;;;;;;22.79;58.41;100878.91;5021047;28;20485;-79
2022/06/14 04:12:24;;;;;;;7.55;5.00;;;;;;;22.91;57.98;100878.50;5027768;28;20053;-78
2022/06/14 04:15:50;;;;;;;10.05;5.15;;;;;;;22.91;57.71;100886.81;5019370;28;20061;-79
2022/06/14 04:18:47;;;;;;;11.23;4.55;;;;;;;22.87;58.50;100894.34;5030862;28;20038;-79
2022/06/14 04:22:04;;;;;;;12.25;5.07;;;;;;;23.10;57.94;100884.88;5027884;28;20049;-79
2022/06/14 04:24:54;;;;;;;7.32;5.60;;;;;;;23.27;57.30;100900.69;5022755;28;20407;-78
2022/06/14 04:27:58;;;;;;;9.35;5.40;;;;;;;23.37;57.17;100897.91;5016582;28;20135;-78
2022/06/14 04:30:49;;;;;;;17.40;5.78;;;;;;;23.63;56.28;100907.03;5023651;28;20692;-78
2022/06/14 04:33:41;;;;;;;8.20;5.40;;;;;;;23.72;55.27;100908.22;5024406;28;20057;-79
2022/06/14 04:36:43;;;;;;;9.43;3.95;;;;;;;23.98;54.41;100901.41;5025806;28;20049;-78
2022/06/14 04:39:39;;;;;;;5.40;2.53;;;;;;;24.29;49.27;100902.50;5020007;28;20446;-79
2022/06/14 04:42:37;;;;;;;8.52;1.58;;;;;;;24.60;47.62;100897.97;5006597;28;20053;-77
2022/06/14 04:45:31;;;;;;;11.10;1.90;;;;;;;24.76;48.18;100901.06;5013697;28;20049;-77
2022/06/14 04:48:21;;;;;;;9.68;1.55;;;;;;;24.91;47.00;100905.38;5008834;28;20038;-78
2022/06/14 04:51:16;;;;;;;3.83;2.15;;;;;;;25.01;46.69;100904.50;5020250;28;20044;-78
2022/06/14 04:54:25;;;;;;;10.45;2.17;;;;;;;25.10;46.36;100913.16;5026940;28;20048;-78
2022/06/14 04:57:18;;;;;;;3.63;1.15;;;;;;;25.21;45.04;100907.53;5033344;28;20042;-78
2022/06/14 05:00:17;;;;;;;3.60;1.02;;;;;;;25.27;43.22;100905.88;5011708;28;20037;-76
2022/06/14 05:03:30;;;;;;;2.13;1.30;;;;;;;25.38;44.12;100911.34;5015770;28;20056;-78
2022/06/14 05:06:34;;;;;;;4.15;0.95;;;;;;;25.43;42.70;100908.13;5025170;28;20052;-78
2022/06/14 05:09:25;;;;;;;3.63;1.13;;;;;;;25.46;41.85;100919.22;5022031;28;20057;-78
2022/06/14 05:12:18;;;;;;;13.63;1.75;;;;;;;25.49;42.91;100921.22;5018873;28;20056;-78
2022/06/14 05:15:13;;;;;;;4.35;1.10;;;;;;;25.53;41.98;100918.38;5014037;28;20037;-79
2022/06/14 05:18:10;;;;;;;3.42;1.20;;;;;;;25.63;41.86;100922.28;5024114;28;20060;-80
2022/06/14 05:21:01;;;;;;;7.72;1.20;;;;;;;25.68;40.60;100916.28;5015917;28;20052;-79
2022/06/14 05:23:50;;;;;;;6.43;1.45;;;;;;;25.74;42.03;100923.78;5024330;28;20033;-78
2022/06/14 05:26:49;;;;;;;14.02;1.45;;;;;;;25.76;41.61;100929.72;5029171;28;20048;-78
2022/06/14 05:30:02;;;;;;;39.90;5.93;;;;;;;25.79;41.24;100936.47;5026012;28;20514;-78
2022/06/14 05:33:11;;;;;;;18.45;3.53;;;;;;;25.80;40.80;100932.47;5016540;28;20044;-78
2022/06/14 05:36:24;;;;;;;36.22;7.10;;;;;;;25.83;41.00;100940.00;5022284;28;20048;-78
2022/06/14 05:39:20;;;;;;;26.75;6.07;;;;;;;25.79;39.84;100940.06;5021567;28;20040;-78
2022/06/14 05:42:17;;;;;;;8.38;1.85;;;;;;;25.69;39.89;100942.94;5022892;28;20613;-78
2022/06/14 05:45:03;;;;;;;21.02;3.30;;;;;;;25.72;41.49;100945.69;5023145;28;20182;-78
2022/06/14 05:47:53;;;;;;;11.82;1.63;;;;;;;25.79;41.32;100939.25;5023039;28;20045;-79
2022/06/14 05:50:42;;;;;;;15.38;1.73;;;;;;;25.88;40.42;100961.84;5019336;28;20049;-78
2022/06/14 05:53:41;;;;;;;8.27;1.60;;;;;;;25.92;40.59;100948.66;5025098;28;20049;-79
2022/06/14 05:56:35;;;;;;;2.47;1.00;;;;;;;25.97;39.79;100962.16;5020406;28;20053;-79
2022/06/14 05:59:32;;;;;;;7.05;1.33;;;;;;;26.01;40.32;100954.53;5022630;28;20045;-78
2022/06/14 06:02:19;;;;;;;6.93;1.40;;;;;;;26.02;39.85;100960.91;5039071;28;20481;-80
2022/06/14 06:05:12;;;;;;;5.53;1.13;;;;;;;25.98;40.74;100960.94;5030179;28;20045;-79
2022/06/14 06:08:36;;;;;;;1.90;0.82;;;;;;;26.10;39.83;100954.84;5019527;28;20060;-79
2022/06/14 06:11:36;;;;;;;8.48;1.00;;;;;;;26.10;39.73;100957.63;5022348;28;20509;-79
2022/06/14 06:14:30;;;;;;;5.25;1.23;;;;;;;26.20;40.26;100964.31;5016793;28;20041;-80
2022/06/14 06:17:45;;;;;;;5.38;0.95;;;;;;;26.46;38.64;100971.19;5035889;28;20048;-79
2022/06/14 06:20:43;;;;;;;4.68;1.05;;;;;;;26.37;39.69;100975.25;5000737;28;20045;-80
2022/06/14 06:23:45;;;;;;;6.05;1.70;;;;;;;26.39;39.44;100978.44;5000246;28;20046;-79
2022/06/14 06:26:33;;;;;;;2.00;0.93;;;;;;;26.42;39.99;100982.38;5000388;28;20118;-80
2022/06/14 06:29:38;;;;;;;2.95;0.90;;;;;;;26.47;38.55;100976.34;5002819;28;20053;-80
2022/06/14 06:32:28;;;;;;;4.28;1.05;;;;;;;26.50;38.69;100978.31;5017969;28;20057;-79
2022/06/14 06:35:13;;;;;;;7.65;0.82;;;;;;;26.52;38.59;100980.66;5023485;28;20037;-82
2022/06/14 06:38:12;;;;;;;6.68;0.85;;;;;;;26.78;38.43;100989.09;5022645;28;20049;-83
2022/06/14 06:44:22;;;;;;;6.25;0.80;;;;;;;26.86;37.18;100987.00;5019230;28;20053;-82
2022/06/14 06:47:35;;;;;;;5.28;0.85;;;;;;;26.72;37.15;100995.53;5021638;28;20450;-82
2022/06/14 06:50:26;;;;;;;1.58;0.68;;;;;;;26.77;36.96;100995.06;5022367;28;20057;-83
2022/06/14 06:53:15;;;;;;;1.95;0.77;;;;;;;26.91;36.74;100994.16;5020555;28;20052;-82
2022/06/14 06:56:04;;;;;;;4.95;0.85;;;;;;;26.83;36.68;100990.63;5025085;28;20100;-82
2022/06/14 06:59:08;;;;;;;5.15;0.80;;;;;;;26.93;36.82;100984.13;5023306;28;20049;-82
2022/06/14 07:01:57;;;;;;;4.93;1.00;;;;;;;26.85;36.49;100988.22;5020470;28;20049;-81
2022/06/14 07:07:57;;;;;;;1.30;0.85;;;;;;;27.01;36.18;101001.56;5021042;28;20068;-81
2022/06/14 07:10:50;;;;;;;1.25;0.70;;;;;;;27.13;36.12;100998.97;5020764;28;20049;-81
2022/06/14 07:13:50;;;;;;;6.57;0.90;;;;;;;27.28;35.89;101007.19;5017667;28;20049;-86
2022/06/14 07:16:44;;;;;;;6.47;1.23;;;;;;;27.24;35.88;101016.38;5026295;28;20056;-86
2022/06/14 07:19:50;;;;;;;4.68;1.20;;;;;;;27.22;35.50;101007.66;5021703;28;20109;-83
2022/06/14 07:22:45;;;;;;;4.40;1.00;;;;;;;27.22;36.17;101010.44;5024853;28;20049;-84
2022/06/14 07:25:36;;;;;;;;;;;;;;;27.32;35.87;101005.91;5022301;28;20045;-85
2022/06/14 07:28:33;;;;;;;12.63;1.95;;;;;;;27.23;35.96;101006.41;5021116;28;19913;-85
2022/06/14 07:31:41;;;;;;;11.05;2.33;;;;;;;27.39;35.95;101002.97;5030433;28;20113;-83
2022/06/14 07:34:28;;;;;;;9.25;3.03;;;;;;;27.53;35.95;101010.41;5022384;28;20432;-83
2022/06/14 07:37:25;;;;;;;7.07;1.05;;;;;;;27.50;35.76;101023.19;5028726;28;20041;-83
2022/06/14 07:40:25;;;;;;;15.00;2.40;;;;;;;27.63;35.04;101010.19;5019209;28;20032;-83
2022/06/14 07:43:26;;;;;;;1.38;0.95;;;;;;;27.53;34.79;101005.56;5023962;28;20069;-83
2022/06/14 07:46:18;;;;;;;3.20;1.00;;;;;;;27.56;34.34;101003.94;5022503;28;20053;-83
2022/06/14 07:49:20;;;;;;;3.53;1.73;;;;;;;27.79;34.66;101017.91;5005025;28;20053;-83
2022/06/14 07:52:17;;;;;;;3.33;0.65;;;;;;;27.88;33.86;101023.75;5007210;28;20049;-83
2022/06/14 07:55:15;;;;;;;3.05;1.05;;;;;;;27.80;34.25;101018.69;5023144;28;20045;-83
2022/06/14 07:58:06;;;;;;;1.67;0.85;;;;;;;27.86;34.05;101023.38;5016544;28;20041;-83
2022/06/14 08:01:08;;;;;;;3.58;0.77;;;;;;;27.91;34.38;101017.31;5025312;28;20044;-83
2022/06/14 08:04:06;;;;;;;5.82;1.00;;;;;;;27.74;35.08;101021.19;5021680;28;20053;-84
2022/06/14 08:07:11;;;;;;;4.22;1.00;;;;;;;27.66;34.28;101025.34;5021378;28;20411;-84
2022/06/14 08:10:05;;;;;;;5.90;1.17;;;;;;;27.43;35.06;101026.06;5026070;28;20045;-83
2022/06/14 08:13:05;;;;;;;0.82;0.50;;;;;;;27.59;34.43;101026.22;5034573;28;20052;-83
2022/06/14 08:15:55;;;;;;;4.90;1.00;;;;;;;27.71;34.11;101024.84;5025833;28;20044;-83
2022/06/14 08:18:45;;;;;;;1.60;0.75;;;;;;;27.83;34.00;101024.25;5041561;28;20045;-82
2022/06/14 08:21:44;;;;;;;1.45;0.60;;;;;;;27.84;34.16;101037.00;5038938;28;20045;-83
2022/06/14 08:24:38;;;;;;;6.13;1.35;;;;;;;27.90;34.44;101040.88;5032104;28;20448;-83
2022/06/14 08:27:28;;;;;;;;;;;;;;;27.99;34.13;101038.31;5027192;28;20053;-82
2022/06/14 08:30:18;;;;;;;2.55;0.95;;;;;;;27.92;34.93;101038.47;5035698;28;19917;-82
2022/06/14 08:33:17;;;;;;;5.20;1.17;;;;;;;27.72;35.43;101045.22;5018562;28;20041;-83
2022/06/14 08:36:08;;;;;;;2.15;1.33;;;;;;;27.64;35.82;101033.34;5023124;28;20048;-82
2022/06/14 08:39:08;;;;;;;1.58;0.98;;;;;;;27.85;36.04;101040.56;5026656;28;20041;-84
2022/06/14 08:42:06;;;;;;;5.55;1.05;;;;;;;27.93;34.93;101042.84;5029629;28;20045;-84
2022/06/14 08:45:03;;;;;;;3.45;1.13;;;;;;;28.02;34.78;101051.47;5029527;28;20048;-84
2022/06/14 08:48:05;;;;;;;2.13;1.00;;;;;;;28.07;34.50;101050.19;5037152;28;20060;-82
2022/06/14 08:51:10;;;;;;;6.88;1.35;;;;;;;28.16;33.95;101036.47;5047535;28;20045;-83
2022/06/14 08:54:04;;;;;;;;;;;;;;;27.98;34.74;101038.78;5014173;28;20056;-85
2022/06/14 08:56:49;;;;;;;3.55;0.80;;;;;;;28.19;34.31;101034.81;5029203;28;19913;-85
2022/06/14 08:59:45;;;;;;;2.80;1.23;;;;;;;28.21;33.97;101037.97;5031604;28;20053;-82
2022/06/14 09:02:57;;;;;;;6.30;1.27;;;;;;;28.42;34.75;101034.75;5048416;28;20057;-83
2022/06/14 09:05:57;;;;;;;4.43;0.90;;;;;;;28.58;33.73;101040.44;5023755;28;20044;-83
2022/06/14 09:09:12;;;;;;;1.73;0.77;;;;;;;28.60;34.28;101037.22;5039336;28;20045;-82
2022/06/14 09:12:19;;;;;;;3.20;0.95;;;;;;;28.68;34.28;101042.25;5033896;28;20044;-83
2022/06/14 09:15:20;;;;;;;5.85;0.90;;;;;;;28.68;33.99;101033.84;5027910;28;20049;-83
2022/06/14 09:18:45;;;;;;;2.28;0.73;;;;;;;28.77;33.86;101036.88;5023484;28;20037;-83
2022/06/14 09:21:33;;;;;;;5.45;1.02;;;;;;;28.71;33.89;101035.75;5050348;28;20041;-83
2022/06/14 09:24:26;;;;;;;4.80;1.23;;;;;;;28.69;34.03;101043.81;5039089;28;20056;-82
2022/06/14 09:27:55;;;;;;;3.00;1.45;;;;;;;28.84;34.29;101031.13;5026446;28;20041;-83
2022/06/14 09:30:52;;;;;;;2.58;1.67;;;;;;;28.90;34.22;101034.97;5023409;28;20048;-83
2022/06/14 09:34:08;;;;;;;4.30;0.90;;;;;;;28.91;33.53;101027.38;5020980;28;20044;-83
2022/06/14 09:37:44;;;;;;;34.30;3.72;;;;;;;29.09;33.81;101030.59;5029631;28;20044;-83
2022/06/14 09:40:54;;;;;;;5.20;1.10;;;;;;;29.10;33.02;101025.78;5027257;28;20045;-84
2022/06/14 09:44:17;;;;;;;17.70;1.33;;;;;;;29.17;31.75;101034.00;5026520;28;20060;-83
2022/06/14 09:47:41;;;;;;;9.63;1.85;;;;;;;29.13;33.05;101020.06;5042003;28;20237;-85
2022/06/14 09:50:45;;;;;;;15.15;1.50;;;;;;;29.38;33.65;101024.34;5015009;22;20053;-60
2022/06/14 09:53:57;;;;;;;5.55;0.98;;;;;;;29.22;32.62;101023.06;4992982;28;20050;-59
2022/06/14 09:56:52;;;;;;;7.82;1.02;;;;;;;29.41;33.14;101015.06;4991198;28;20053;-60
2022/06/14 09:59:49;;;;;;;5.32;1.50;;;;;;;29.39;33.05;101015.50;4994976;28;20414;-60
2022/06/14 10:02:58;;;;;;;10.38;1.35;;;;;;;29.64;32.88;101026.09;4998949;28;20053;-60
2022/06/14 10:06:01;;;;;;;14.95;1.30;;;;;;;29.60;31.72;101017.78;4996689;28;20026;-60
2022/06/14 10:09:07;;;;;;;3.92;1.02;;;;;;;29.58;32.58;101023.03;4996298;28;20490;-59
2022/06/14 10:12:30;;;;;;;2.35;0.80;;;;;;;29.73;30.21;101024.25;4990726;28;20046;-60
2022/06/14 10:15:25;;;;;;;6.53;1.30;;;;;;;29.72;30.67;101022.66;4996738;28;20059;-60
2022/06/14 10:18:41;;;;;;;1.67;0.73;;;;;;;29.61;32.05;101019.34;5001508;28;20041;-60
2022/06/14 10:21:44;;;;;;;2.97;1.13;;;;;;;29.74;32.20;101017.41;4995083;28;20042;-59
2022/06/14 10:25:00;;;;;;;7.65;1.20;;;;;;;29.52;32.04;101013.56;4991071;28;20409;-59
2022/06/14 10:28:18;;;;;;;8.90;0.93;;;;;;;29.71;32.79;101025.94;4988053;28;20046;-59
2022/06/14 10:31:09;;;;;;;4.68;1.27;;;;;;;29.60;32.15;101023.41;4987562;28;20037;-60
2022/06/14 10:34:04;;;;;;;3.40;1.35;;;;;;;29.80;32.36;101016.88;5016395;28;20052;-60
2022/06/14 10:37:14;;;;;;;6.93;1.50;;;;;;;29.92;31.91;101019.03;5012117;28;20386;-60
2022/06/14 10:40:37;;;;;;;4.43;1.65;;;;;;;29.81;32.47;101015.66;4998043;28;20077;-59
2022/06/14 10:43:28;;;;;;;1.33;0.85;;;;;;;29.92;32.40;101007.81;4994370;28;20162;-60
2022/06/14 10:46:14;;;;;;;26.15;2.17;;;;;;;30.04;32.94;101004.25;4993267;28;20057;-60
2022/06/14 10:49:36;;;;;;;1.67;0.80;;;;;;;30.19;32.05;101013.84;4991175;28;20038;-60
2022/06/14 10:52:32;;;;;;;1.13;0.77;;;;;;;30.25;31.08;101017.69;4987092;28;20037;-60
2022/06/14 10:55:23;;;;;;;1.40;0.90;;;;;;;29.90;31.90;101004.63;4996267;28;20093;-59
2022/06/14 10:58:29;;;;;;;8.30;2.38;;;;;;;29.95;31.26;101015.31;4995068;28;20065;-59
2022/06/14 11:01:37;;;;;;;2.28;0.90;;;;;;;30.06;32.78;101018.63;4994691;28;20509;-60
2022/06/14 11:04:58;;;;;;;1.63;0.80;;;;;;;29.91;32.23;101009.03;4982297;28;20056;-61
2022/06/14 11:07:49;;;;;;;4.43;1.40;;;;;;;30.05;32.36;100998.22;4994680;28;20065;-61
2022/06/14 11:10:52;;;;;;;12.85;1.02;;;;;;;30.25;32.40;101003.69;4999259;28;20045;-61
2022/06/14 11:13:58;;;;;;;3.42;1.33;;;;;;;30.15;33.23;101002.75;4994113;28;20050;-61
2022/06/14 11:17:05;;;;;;;3.45;1.08;;;;;;;30.44;33.22;101002.72;4998220;28;20077;-61
2022/06/14 11:20:07;;;;;;;6.22;1.20;;;;;;;30.55;33.05;100994.81;5002620;28;20045;-61
2022/06/14 11:23:04;;;;;;;2.67;1.20;;;;;;;30.46;31.92;101002.28;4996582;28;20049;-61
2022/06/14 11:26:08;;;;;;;3.47;1.20;;;;;;;30.47;31.64;101001.09;5016686;23;20532;-62
2022/06/14 11:29:18;;;;;;;6.80;1.13;;;;;;;30.67;31.70;101000.91;5013782;28;20044;-62
2022/06/14 11:32:37;;;;;;;2.58;1.00;;;;;;;30.68;31.39;100996.88;5007061;28;20037;-61
2022/06/14 11:35:53;;;;;;;6.00;0.95;;;;;;;30.67;31.33;100996.06;5019121;28;20041;-61
2022/06/14 11:38:57;;;;;;;7.05;1.65;;;;;;;30.71;32.00;101001.59;4998142;28;20081;-62
2022/06/14 11:41:45;;;;;;;1.58;1.25;;;;;;;30.81;32.03;100986.44;5008609;28;20045;-62
2022/06/14 11:44:41;;;;;;;2.80;1.30;;;;;;;30.85;32.34;100990.69;5020402;28;20065;-62
2022/06/14 11:47:44;;;;;;;2.17;0.90;;;;;;;30.94;32.64;100995.66;5027354;28;20505;-62
2022/06/14 11:50:45;;;;;;;10.97;1.50;;;;;;;30.95;31.91;100995.19;5022946;28;20049;-62
2022/06/14 11:54:02;;;;;;;5.53;1.17;;;;;;;31.01;32.25;100987.00;5016376;28;20489;-62
2022/06/14 11:57:12;;;;;;;8.93;1.70;;;;;;;30.96;31.78;100996.00;5017720;28;20044;-62
2022/06/14 12:00:50;;;;;;;2.20;1.10;;;;;;;31.11;31.03;100985.91;5014708;28;20053;-62
2022/06/14 12:03:59;;;;;;;3.63;0.90;;;;;;;31.04;32.14;100986.13;5006555;28;20037;-62
2022/06/14 12:06:43;;;;;;;6.18;1.73;;;;;;;30.96;31.85;100970.72;5005151;28;20049;-61
2022/06/14 12:09:46;;;;;;;2.92;1.10;;;;;;;31.09;31.67;100982.75;5007273;28;20049;-62
2022/06/14 12:12:41;;;;;;;2.05;1.33;;;;;;;31.13;31.25;100977.03;5014839;28;20077;-61
2022/06/14 12:15:44;;;;;;;5.03;1.20;;;;;;;30.99;31.63;100967.00;5017496;28;20057;-61
2022/06/14 12:18:35;;;;;;;3.30;1.40;;;;;;;30.95;31.23;100971.94;5013116;28;20316;-62
2022/06/14 12:21:51;;;;;;;2.08;1.45;;;;;;;31.11;31.53;100971.06;5011128;28;20041;-62
2022/06/14 12:27:45;;;;;;;16.77;2.47;;;;;;;31.29;32.52;100960.81;5016823;28;20048;-61
2022/06/14 12:30:33;;;;;;;8.52;1.85;;;;;;;31.12;31.97;100959.38;5017882;28;20042;-62
2022/06/14 12:33:29;;;;;;;2.08;1.42;;;;;;;31.29;30.88;100951.63;5011730;28;20044;-61
2022/06/14 12:36:44;;;;;;;3.08;1.13;;;;;;;31.34;30.79;100949.00;5029462;28;20428;-62
2022/06/14 12:39:32;;;;;;;;;;;;;;;31.41;30.73;100951.59;5012101;28;20061;-62
2022/06/14 12:42:43;;;;;;;8.70;1.33;;;;;;;31.43;30.78;100948.34;5017585;28;19913;-62
2022/06/14 12:45:49;;;;;;;3.17;1.17;;;;;;;31.48;30.80;100939.31;5013803;28;20045;-61
2022/06/14 12:48:46;;;;;;;4.47;1.33;;;;;;;31.37;30.53;100936.88;5012908;28;20516;-62
2022/06/14 12:51:43;;;;;;;4.68;1.45;;;;;;;31.33;30.76;100932.59;5013345;28;20401;-62
2022/06/14 12:55:06;;;;;;;3.88;1.05;;;;;;;31.40;30.99;100933.16;5013376;28;20056;-62
2022/06/14 12:58:13;;;;;;;3.85;1.23;;;;;;;31.19;30.93;100936.66;5013282;28;20048;-61
2022/06/14 13:01:19;;;;;;;6.55;1.90;;;;;;;31.21;30.68;100939.03;5013660;28;20045;-61
2022/06/14 13:04:10;;;;;;;5.55;1.45;;;;;;;31.26;31.02;100924.41;5014000;28;20416;-62
2022/06/14 13:07:10;;;;;;;11.40;1.50;;;;;;;31.27;31.86;100926.78;5018789;28;20056;-62
2022/06/14 13:10:41;;;;;;;3.55;1.75;;;;;;;31.34;32.11;100920.91;5013342;28;20049;-62
2022/06/14 13:13:59;;;;;;;2.15;1.20;;;;;;;31.31;32.99;100919.00;5012739;28;20049;-62
2022/06/14 13:16:55;;;;;;;6.35;1.65;;;;;;;31.25;32.52;100923.63;5004688;28;20519;-62
2022/06/14 13:19:43;;;;;;;3.65;1.48;;;;;;;31.22;33.13;100924.53;5012603;28;20041;-62
2022/06/14 13:22:43;;;;;;;9.23;1.23;;;;;;;31.20;31.78;100910.13;5012624;28;20405;-61
2022/06/14 13:25:53;;;;;;;2.45;1.42;;;;;;;30.93;32.24;100919.00;5015595;28;20061;-61
2022/06/14 13:29:15;;;;;;;5.15;1.52;;;;;;;31.02;33.50;100907.13;5013536;28;20045;-62
2022/06/14 13:32:25;;;;;;;5.80;1.38;;;;;;;31.05;33.58;100914.66;5016234;28;20041;-62
2022/06/14 13:35:32;;;;;;;3.53;1.38;;;;;;;30.95;33.38;100899.69;5022456;28;20045;-62
2022/06/14 13:38:40;;;;;;;6.60;1.65;;;;;;;31.05;33.72;100905.44;5031774;28;20049;-62
2022/06/14 13:41:25;;;;;;;8.38;1.42;;;;;;;30.96;33.81;100911.72;5032206;28;20048;-62
2022/06/14 13:44:19;;;;;;;6.22;1.52;;;;;;;31.02;33.53;100898.72;5025005;28;20405;-62
2022/06/14 13:47:24;;;;;;;2.33;1.30;;;;;;;31.07;33.59;100897.34;5020527;28;20045;-62
2022/06/14 13:50:22;;;;;;;7.05;1.40;;;;;;;30.85;33.85;100897.22;5012955;28;20532;-62
2022/06/14 13:53:15;;;;;;;2.72;1.80;;;;;;;30.88;33.89;100887.91;5014215;28;20037;-62
2022/06/14 13:56:07;;;;;;;3.05;1.52;;;;;;;30.92;33.82;100894.97;5012192;28;20052;-62
2022/06/14 13:59:16;;;;;;;7.68;1.70;;;;;;;30.84;33.84;100887.22;5025149;28;20044;-62
2022/06/14 14:02:26;;;;;;;9.55;2.63;;;;;;;30.88;34.05;100883.06;5002962;28;20057;-62
2022/06/14 14:05:17;;;;;;;11.45;1.42;;;;;;;30.95;34.14;100879.25;4997341;28;20085;-62